Huvudsida
METAR-TAF:

METAR-TAF

Flygplatser :

Almerías flygplats

Almería, Spanien

latitud: 36-51N, longitud: 002-23W, höjd: 15 m

Aktuellt väderrapport

Denna rapport gjordes för 39 minuter sedan, klockan 04:30 UTC
Vind 2 kt varierande vindriktning
Temperatur 25°C
Fuktighet 47%
Tryck 1019 hPa
Sikt 10 km eller mer
Inga moln under 1 500 m eller inga cumulonimbus

METAR: LEAM 230430Z VRB02KT CAVOK 25/13 Q1019

Tid: 07:09 (05:09 UTC)

Väderprognos

Denna rapport gjordes för 6 timmar och 9 minuter sedan, klockan 23:00 UTC
Prognos gäller från 23 kl. 00 UTC till 23 kl. 24 UTC
Vind 3 kt varierande vindriktning
Sikt 10 km eller mer
Få moln på en höjd av 2500 ft
Blir
från 23 kl. 06 UTC till 23 kl. 08 UTC
Vind 11 kt från ost/sydost
Blir
från 23 kl. 20 UTC till 23 kl. 22 UTC
Vind 3 kt varierande vindriktning

TAF: LEAM 222300Z 2300/2324 VRB03KT 9999 FEW025 TX37/2314Z TN23/2305Z BECMG 2306/2308 11011KT BECMG 2320/2322 VRB03KT

Aktuella väderrapporter och prognoser från 4000 flygplatser (METAR- och TAF-rapporter).

De tillgängliga stationerna syns som gula och röda prickar på kartan.

För musen över prickarna för att se namnen på stationerna.

Klicka sedan för att få väderrapporter och prognoser.

För att ändra kartan: Klicka på de gröna knapparna med ett svart kors på för att zooma in; den gröna knappen med ett streck på för att zooma ut; eller på de gröna pilarna för angränsande kartor.


METAR-TAF: